createdAt,value
2022-12-12T00:01:38.580Z,100798.03
2022-12-12T00:04:07.146Z,100805.22
2022-12-12T00:06:35.551Z,100810.81
2022-12-12T00:09:04.818Z,100806.69
2022-12-12T00:11:33.479Z,100809.56
2022-12-12T00:14:01.916Z,100815.03
2022-12-12T00:16:30.761Z,100814.16
2022-12-12T00:18:59.079Z,100805.44
2022-12-12T00:21:30.062Z,100793.19
2022-12-12T00:23:59.204Z,100797.69
2022-12-12T00:26:33.873Z,100791.63
2022-12-12T00:29:02.593Z,100789.00
2022-12-12T00:31:31.441Z,100795.31
2022-12-12T00:34:00.427Z,100789.22
2022-12-12T00:36:31.004Z,100790.19
2022-12-12T00:39:00.500Z,100800.81
2022-12-12T00:41:29.604Z,100795.53
2022-12-12T00:43:57.919Z,100794.69
2022-12-12T00:46:27.315Z,100792.13
2022-12-12T00:48:58.344Z,100791.31
2022-12-12T00:51:29.424Z,100794.81
2022-12-12T00:53:59.664Z,100788.66
2022-12-12T00:56:30.425Z,100788.75
2022-12-12T00:58:58.758Z,100783.53
2022-12-12T01:01:31.856Z,100780.91
2022-12-12T01:04:00.899Z,100772.97
2022-12-12T01:06:29.994Z,100772.91
2022-12-12T01:08:58.612Z,100763.16
2022-12-12T01:11:27.887Z,100768.47
2022-12-12T01:13:56.540Z,100762.34
2022-12-12T01:16:25.669Z,100764.13
2022-12-12T01:18:54.274Z,100759.75
2022-12-12T01:21:22.919Z,100758.06
2022-12-12T01:23:51.504Z,100755.41
2022-12-12T01:26:23.575Z,100755.41
2022-12-12T01:28:52.893Z,100751.00
2022-12-12T01:31:22.144Z,100745.72
2022-12-12T01:33:50.462Z,100751.06
2022-12-12T01:36:21.064Z,100758.13
2022-12-12T01:38:51.218Z,100759.91
2022-12-12T01:41:20.419Z,100757.31
2022-12-12T01:43:49.064Z,100755.63
2022-12-12T01:46:46.568Z,100760.88
2022-12-12T01:49:27.367Z,100757.31
2022-12-12T01:52:01.582Z,100758.16
2022-12-12T01:54:38.117Z,100741.50
2022-12-12T01:57:12.049Z,100745.88
2022-12-12T01:59:41.619Z,100738.81
2022-12-12T02:02:11.016Z,100748.56
2022-12-12T02:04:41.042Z,100741.50
2022-12-12T02:07:09.358Z,100738.06
2022-12-12T02:09:39.092Z,100744.25
2022-12-12T02:12:07.991Z,100734.59
2022-12-12T02:14:44.259Z,100738.16
2022-12-12T02:17:41.699Z,100734.72
2022-12-12T02:20:46.765Z,100738.31
2022-12-12T02:23:51.745Z,100724.25
2022-12-12T02:26:47.877Z,100725.16
2022-12-12T02:29:40.812Z,100719.19
2022-12-12T02:32:38.924Z,100713.97
2022-12-12T02:35:30.766Z,100719.38
2022-12-12T02:38:22.102Z,100714.19
2022-12-12T02:41:05.544Z,100704.56
2022-12-12T02:43:59.413Z,100702.88
2022-12-12T02:46:35.828Z,100696.91
2022-12-12T02:49:46.770Z,100690.00
2022-12-12T02:52:15.725Z,100684.78
2022-12-12T02:54:44.015Z,100684.81
2022-12-12T02:57:18.824Z,100677.78
2022-12-12T02:59:54.364Z,100665.59
2022-12-12T03:03:18.762Z,100662.13
2022-12-12T03:06:23.683Z,100663.91
2022-12-12T03:09:08.957Z,100675.34
2022-12-12T03:12:08.193Z,100666.53
2022-12-12T03:14:49.125Z,100670.88
2022-12-12T03:17:37.599Z,100679.66
2022-12-12T03:20:23.934Z,100684.94
2022-12-12T03:22:58.740Z,100684.97
2022-12-12T03:25:40.515Z,100681.53
2022-12-12T03:28:19.032Z,100675.44
2022-12-12T03:30:53.495Z,100679.03
2022-12-12T03:33:32.840Z,100679.94
2022-12-12T03:36:11.360Z,100679.91
2022-12-12T03:38:45.117Z,100684.25
2022-12-12T03:41:20.178Z,100686.00
2022-12-12T03:43:56.452Z,100678.06
2022-12-12T03:46:31.242Z,100682.53
2022-12-12T03:49:05.155Z,100675.53
2022-12-12T03:51:39.094Z,100675.59
2022-12-12T03:54:20.146Z,100680.91
2022-12-12T03:57:15.219Z,100684.44
2022-12-12T03:59:54.279Z,100682.69
2022-12-12T04:02:33.944Z,100687.97
2022-12-12T04:05:09.708Z,100686.25
2022-12-12T04:07:45.316Z,100688.06
2022-12-12T04:10:32.521Z,100684.53
2022-12-12T04:13:27.534Z,100684.50
2022-12-12T04:16:21.028Z,100674.00
2022-12-12T04:18:58.860Z,100667.84
2022-12-12T04:21:59.560Z,100674.00
2022-12-12T04:24:47.398Z,100661.72
2022-12-12T04:27:25.800Z,100660.84
2022-12-12T04:30:07.865Z,100664.34
2022-12-12T04:33:02.422Z,100670.53
2022-12-12T04:35:39.889Z,100662.66
2022-12-12T04:38:24.694Z,100657.41
2022-12-12T04:40:57.162Z,100660.03
2022-12-12T04:43:35.244Z,100653.88
2022-12-12T04:46:21.647Z,100653.88
2022-12-12T04:49:08.200Z,100653.94
2022-12-12T04:51:43.629Z,100652.25
2022-12-12T04:54:22.879Z,100652.31
2022-12-12T04:57:00.594Z,100655.09
2022-12-12T04:59:30.286Z,100655.09
2022-12-12T05:02:10.143Z,100647.16
2022-12-12T05:04:43.225Z,100646.34
2022-12-12T05:07:23.403Z,100642.03
2022-12-12T05:09:52.047Z,100637.56
2022-12-12T05:12:21.939Z,100638.47
2022-12-12T05:14:51.083Z,100648.97
2022-12-12T05:17:28.914Z,100646.25
2022-12-12T05:19:58.259Z,100650.63
2022-12-12T05:22:26.664Z,100647.06
2022-12-12T05:24:54.959Z,100638.25
2022-12-12T05:27:23.244Z,100643.53
2022-12-12T05:29:51.714Z,100635.66
2022-12-12T05:32:20.198Z,100630.41
2022-12-12T05:34:48.479Z,100624.34
2022-12-12T05:37:16.842Z,100620.81
2022-12-12T05:39:45.285Z,100612.91
2022-12-12T05:42:13.760Z,100622.66
2022-12-12T05:44:42.192Z,100630.63
2022-12-12T05:47:11.015Z,100626.28
2022-12-12T05:49:39.274Z,100627.16
2022-12-12T05:52:07.680Z,100636.81
2022-12-12T05:54:36.048Z,100633.34
2022-12-12T05:57:04.519Z,100636.84
2022-12-12T05:59:33.005Z,100643.94
2022-12-12T06:02:01.529Z,100646.56
2022-12-12T06:04:29.955Z,100644.84
2022-12-12T06:06:58.405Z,100654.44
2022-12-12T06:09:26.875Z,100642.97
2022-12-12T06:11:55.239Z,100641.16
2022-12-12T06:14:23.679Z,100639.38
2022-12-12T06:16:52.014Z,100634.13
2022-12-12T06:19:21.324Z,100630.56
2022-12-12T06:21:49.798Z,100623.59
2022-12-12T06:24:18.124Z,100628.94
2022-12-12T06:26:46.466Z,100620.28
2022-12-12T06:29:15.860Z,100619.47
2022-12-12T06:31:44.265Z,100626.53
2022-12-12T06:34:12.680Z,100616.03
2022-12-12T06:36:41.139Z,100611.66
2022-12-12T06:39:10.648Z,100609.94
2022-12-12T06:41:39.055Z,100607.31
2022-12-12T06:44:08.004Z,100607.31
2022-12-12T06:46:36.474Z,100602.88
2022-12-12T06:49:10.492Z,100600.31
2022-12-12T06:51:45.079Z,100603.94
2022-12-12T06:54:18.844Z,100600.44
2022-12-12T06:56:48.751Z,100608.34
2022-12-12T06:59:17.793Z,100610.94
2022-12-12T07:01:46.327Z,100615.28
2022-12-12T07:04:16.041Z,100618.75
2022-12-12T07:06:44.719Z,100621.38
2022-12-12T07:09:13.321Z,100632.75
2022-12-12T07:11:42.758Z,100631.00
2022-12-12T07:14:12.099Z,100630.94
2022-12-12T07:16:40.860Z,100636.25
2022-12-12T07:19:09.159Z,100639.72
2022-12-12T07:21:37.644Z,100640.56
2022-12-12T07:24:06.283Z,100643.25
2022-12-12T07:26:34.597Z,100654.72
2022-12-12T07:29:06.133Z,100640.66
2022-12-12T07:31:36.569Z,100652.03
2022-12-12T07:34:04.925Z,100655.63
2022-12-12T07:36:33.446Z,100657.41
2022-12-12T07:39:01.917Z,100651.25
2022-12-12T07:41:30.279Z,100658.34
2022-12-12T07:43:58.742Z,100656.63
2022-12-12T07:46:27.468Z,100655.81
2022-12-12T07:48:55.975Z,100650.50
2022-12-12T07:51:24.679Z,100647.84
2022-12-12T07:53:53.174Z,100651.31
2022-12-12T07:56:21.644Z,100652.13
2022-12-12T07:58:50.599Z,100651.31
2022-12-12T08:01:20.909Z,100639.91
2022-12-12T08:03:50.281Z,100645.22
2022-12-12T08:06:20.316Z,100646.09
2022-12-12T08:08:49.716Z,100646.16
2022-12-12T08:11:20.783Z,100651.44
2022-12-12T08:13:49.760Z,100659.34
2022-12-12T08:16:24.053Z,100657.63
2022-12-12T08:18:55.714Z,100651.53
2022-12-12T08:21:26.423Z,100649.88
2022-12-12T08:24:03.186Z,100651.66
2022-12-12T08:26:33.233Z,100652.50
2022-12-12T08:29:02.240Z,100663.00
2022-12-12T08:31:31.509Z,100648.03
2022-12-12T08:34:01.800Z,100652.34
2022-12-12T08:36:32.944Z,100656.72
2022-12-12T08:39:07.994Z,100652.25
2022-12-12T08:41:38.699Z,100657.44
2022-12-12T08:44:18.079Z,100658.31
2022-12-12T08:46:47.093Z,100655.72
2022-12-12T08:49:16.058Z,100658.34
2022-12-12T08:51:44.568Z,100656.66
2022-12-12T08:54:17.055Z,100663.75
2022-12-12T08:56:45.481Z,100658.41
2022-12-12T08:59:14.738Z,100654.91
2022-12-12T09:01:43.447Z,100654.94
2022-12-12T09:04:11.884Z,100662.72
2022-12-12T09:06:40.361Z,100664.44
2022-12-12T09:09:08.839Z,100667.88
2022-12-12T09:11:37.179Z,100661.72
2022-12-12T09:14:05.617Z,100667.88
2022-12-12T09:16:34.174Z,100666.13
2022-12-12T09:19:03.037Z,100666.09
2022-12-12T09:21:31.506Z,100673.16
2022-12-12T09:24:00.339Z,100667.88
2022-12-12T09:26:28.827Z,100674.03
2022-12-12T09:28:57.318Z,100678.34
2022-12-12T09:31:25.797Z,100678.28
2022-12-12T09:33:55.360Z,100672.91
2022-12-12T09:36:24.216Z,100675.47
2022-12-12T09:38:52.680Z,100685.09
2022-12-12T09:41:25.000Z,100686.78
2022-12-12T09:44:12.691Z,100688.56
2022-12-12T09:47:02.600Z,100696.47
2022-12-12T09:49:50.983Z,100695.59
2022-12-12T09:52:35.303Z,100700.88
2022-12-12T09:55:34.801Z,100708.81
2022-12-12T09:58:21.316Z,100716.72
2022-12-12T10:01:13.365Z,100722.84
2022-12-12T10:04:09.319Z,100723.72
2022-12-12T10:06:59.724Z,100738.63
2022-12-12T10:09:57.005Z,100732.50
2022-12-12T10:12:27.555Z,100736.91
2022-12-12T10:15:03.845Z,100743.91
2022-12-12T10:17:53.007Z,100749.22
2022-12-12T10:20:27.220Z,100745.69
2022-12-12T10:23:27.526Z,100753.59
2022-12-12T10:26:03.201Z,100754.50
2022-12-12T10:28:33.641Z,100759.72
2022-12-12T10:31:07.931Z,100769.34
2022-12-12T10:34:13.315Z,100770.25
2022-12-12T10:36:46.720Z,100773.75
2022-12-12T10:39:44.398Z,100772.81
2022-12-12T10:42:34.257Z,100772.81
2022-12-12T10:45:44.204Z,100784.16
2022-12-12T10:48:13.098Z,100784.19
2022-12-12T10:50:52.360Z,100785.09
2022-12-12T10:53:22.439Z,100794.75
2022-12-12T10:55:54.599Z,100791.19
2022-12-12T10:58:44.507Z,100797.38
2022-12-12T11:01:45.055Z,100801.84
2022-12-12T11:04:15.718Z,100800.16
2022-12-12T11:06:50.799Z,100809.84
2022-12-12T11:09:25.599Z,100811.59
2022-12-12T11:12:10.439Z,100816.94
2022-12-12T11:14:47.340Z,100816.94
2022-12-12T11:17:29.319Z,100808.19
2022-12-12T11:20:03.527Z,100814.38
2022-12-12T11:22:34.422Z,100820.56
2022-12-12T11:25:02.919Z,100825.88
2022-12-12T11:27:39.368Z,100825.91
2022-12-12T11:30:23.563Z,100832.03
2022-12-12T11:32:56.500Z,100835.59
2022-12-12T11:35:26.881Z,100839.09
2022-12-12T11:38:09.480Z,100844.44
2022-12-12T11:40:39.399Z,100848.03
2022-12-12T11:43:26.571Z,100857.66
2022-12-12T11:46:05.389Z,100854.13
2022-12-12T11:48:41.159Z,100862.94
2022-12-12T11:51:10.121Z,100860.28
2022-12-12T11:53:42.462Z,100857.63
2022-12-12T11:56:45.281Z,100861.19
2022-12-12T11:59:31.539Z,100869.13
2022-12-12T12:02:27.353Z,100871.78
2022-12-12T12:04:55.731Z,100885.84
2022-12-12T12:07:59.301Z,100892.91
2022-12-12T12:10:49.154Z,100894.66
2022-12-12T12:13:41.641Z,100895.56
2022-12-12T12:16:16.413Z,100900.88
2022-12-12T12:18:44.325Z,100901.06
2022-12-12T12:21:29.639Z,100908.16
2022-12-12T12:24:06.560Z,100905.63
2022-12-12T12:26:40.479Z,100919.72
2022-12-12T12:29:11.880Z,100914.50
2022-12-12T12:31:58.212Z,100914.59
2022-12-12T12:34:48.840Z,100920.81
2022-12-12T12:37:49.160Z,100929.63
2022-12-12T12:40:39.723Z,100934.00
2022-12-12T12:43:30.280Z,100941.00
2022-12-12T12:46:19.920Z,100948.94
2022-12-12T12:49:21.004Z,100958.56
2022-12-12T12:52:02.292Z,100957.59
2022-12-12T12:54:41.876Z,100959.31
2022-12-12T12:57:16.684Z,100961.88
2022-12-12T12:59:59.884Z,100959.22
2022-12-12T13:02:46.510Z,100960.09
2022-12-12T13:05:23.881Z,100961.81
2022-12-12T13:07:55.927Z,100975.91
2022-12-12T13:10:28.236Z,100982.19
2022-12-12T13:13:22.297Z,100984.06
2022-12-12T13:16:16.544Z,100992.03
2022-12-12T13:18:49.794Z,100992.06
2022-12-12T13:21:33.006Z,100997.34
2022-12-12T13:24:14.264Z,101000.88
2022-12-12T13:26:46.601Z,100995.63
2022-12-12T13:29:43.879Z,101003.59
2022-12-12T13:32:28.997Z,101004.56
2022-12-12T13:35:00.043Z,101013.34
2022-12-12T13:37:37.484Z,101012.44
2022-12-12T13:40:08.673Z,101013.25
2022-12-12T13:43:10.244Z,101023.75
2022-12-12T13:45:44.360Z,101031.63
2022-12-12T13:48:40.198Z,101032.53
2022-12-12T13:51:36.839Z,101040.44
2022-12-12T13:54:25.320Z,101042.22
2022-12-12T13:56:59.561Z,101039.63
2022-12-12T13:59:27.881Z,101051.94
2022-12-12T14:02:36.396Z,101051.94
2022-12-12T14:05:22.403Z,101056.28
2022-12-12T14:08:07.139Z,101058.94
2022-12-12T14:10:46.600Z,101062.41
2022-12-12T14:13:22.881Z,101063.25
2022-12-12T14:16:08.726Z,101076.34
2022-12-12T14:18:41.940Z,101080.69
2022-12-12T14:21:13.871Z,101083.28
2022-12-12T14:23:44.684Z,101090.28
2022-12-12T14:26:31.359Z,101096.38
2022-12-12T14:29:18.005Z,101094.59
2022-12-12T14:31:54.944Z,101102.50
2022-12-12T14:34:30.917Z,101099.00
2022-12-12T14:37:14.128Z,101107.88
2022-12-12T14:39:50.118Z,101105.28
2022-12-12T14:43:20.661Z,101104.50
2022-12-12T14:45:51.380Z,101115.91
2022-12-12T14:48:32.800Z,101122.94
2022-12-12T14:51:11.884Z,101122.94
2022-12-12T14:53:40.196Z,101124.69
2022-12-12T14:56:20.160Z,101134.44
2022-12-12T14:59:25.261Z,101130.97
2022-12-12T15:02:02.121Z,101133.66
2022-12-12T15:04:38.759Z,101134.53
2022-12-12T15:07:22.761Z,101136.28
2022-12-12T15:09:51.679Z,101141.59
2022-12-12T15:12:27.559Z,101138.94
2022-12-12T15:14:58.421Z,101145.13
2022-12-12T15:17:31.085Z,101146.00
2022-12-12T15:20:33.164Z,101136.31
2022-12-12T15:23:09.640Z,101134.56
2022-12-12T15:25:48.435Z,101138.06
2022-12-12T15:28:20.200Z,101145.06
2022-12-12T15:30:53.402Z,101149.41
2022-12-12T15:33:27.084Z,101156.41
2022-12-12T15:36:01.938Z,101163.41
2022-12-12T15:38:31.406Z,101164.31
2022-12-12T15:41:05.527Z,101179.22
2022-12-12T15:43:40.360Z,101179.19
2022-12-12T15:46:15.145Z,101179.19
2022-12-12T15:48:48.741Z,101188.88
2022-12-12T15:51:24.582Z,101195.00
2022-12-12T15:53:56.293Z,101194.13
2022-12-12T15:56:28.656Z,101204.63
2022-12-12T15:59:18.596Z,101202.88
2022-12-12T16:01:47.207Z,101203.75
2022-12-12T16:04:15.453Z,101208.16
2022-12-12T16:06:46.924Z,101212.59
2022-12-12T16:09:28.091Z,101220.44
2022-12-12T16:12:00.534Z,101223.06
2022-12-12T16:14:39.425Z,101228.25
2022-12-12T16:17:19.274Z,101236.09
2022-12-12T16:19:55.190Z,101236.94
2022-12-12T16:22:38.159Z,101249.22
2022-12-12T16:25:35.423Z,101252.78
2022-12-12T16:28:09.598Z,101258.94
2022-12-12T16:30:40.129Z,101268.56
2022-12-12T16:33:25.800Z,101273.91
2022-12-12T16:35:55.201Z,101275.69
2022-12-12T16:38:24.044Z,101286.25
2022-12-12T16:40:55.730Z,101286.25
2022-12-12T16:43:25.645Z,101286.25
2022-12-12T16:45:56.352Z,101295.91
2022-12-12T16:48:27.339Z,101301.16
2022-12-12T16:51:03.567Z,101303.75
2022-12-12T16:53:32.643Z,101316.91
2022-12-12T16:56:01.324Z,101312.47
2022-12-12T16:58:30.120Z,101320.41
2022-12-12T17:01:01.024Z,101326.56
2022-12-12T17:03:30.884Z,101330.94
2022-12-12T17:05:59.281Z,101336.28
2022-12-12T17:08:28.085Z,101336.22
2022-12-12T17:11:10.354Z,101345.88
2022-12-12T17:13:51.870Z,101344.09
2022-12-12T17:16:25.849Z,101344.94
2022-12-12T17:18:55.962Z,101350.19
2022-12-12T17:21:24.236Z,101357.19
2022-12-12T17:23:52.555Z,101360.69
2022-12-12T17:26:20.809Z,101362.41
2022-12-12T17:28:49.097Z,101364.13
2022-12-12T17:31:17.419Z,101375.56
2022-12-12T17:33:50.527Z,101371.09
2022-12-12T17:36:20.644Z,101373.69
2022-12-12T17:38:49.849Z,101379.81
2022-12-12T17:41:18.132Z,101375.31
2022-12-12T17:43:50.599Z,101384.97
2022-12-12T17:46:22.161Z,101387.53
2022-12-12T17:48:51.104Z,101388.44
2022-12-12T17:51:22.959Z,101393.75
2022-12-12T17:53:53.289Z,101395.53
2022-12-12T17:56:24.849Z,101394.69
2022-12-12T17:58:55.249Z,101396.50
2022-12-12T18:01:29.290Z,101411.44
2022-12-12T18:03:59.136Z,101420.19
2022-12-12T18:06:30.689Z,101416.66
2022-12-12T18:08:59.674Z,101410.38
2022-12-12T18:11:33.663Z,101412.06
2022-12-12T18:14:05.217Z,101407.53
2022-12-12T18:16:35.356Z,101416.22
2022-12-12T18:19:04.260Z,101420.56
2022-12-12T18:24:24.735Z,101416.22
2022-12-12T18:26:59.183Z,101414.47
2022-12-12T18:29:28.364Z,101416.19
2022-12-12T18:31:57.813Z,101413.56
2022-12-12T18:34:26.926Z,101410.00
2022-12-12T18:36:55.390Z,101410.84
2022-12-12T18:39:23.894Z,101412.59
2022-12-12T18:41:53.014Z,101418.75
2022-12-12T18:44:21.329Z,101411.72
2022-12-12T18:46:52.358Z,101418.72
2022-12-12T18:49:20.843Z,101410.75
2022-12-12T18:51:49.299Z,101417.75
2022-12-12T18:54:18.476Z,101410.66
2022-12-12T18:56:48.268Z,101402.72
2022-12-12T18:59:17.652Z,101396.53
2022-12-12T19:01:46.482Z,101393.75
2022-12-12T19:04:23.263Z,101395.44
2022-12-12T19:06:53.121Z,101393.59
2022-12-12T19:09:22.424Z,101394.41
2022-12-12T19:11:58.251Z,101380.22
2022-12-12T19:14:45.894Z,101381.97
2022-12-12T19:17:25.306Z,101388.00
2022-12-12T19:19:56.328Z,101377.34
2022-12-12T19:22:44.391Z,101366.69
2022-12-12T19:25:13.806Z,101370.09
2022-12-12T19:27:42.599Z,101361.22
2022-12-12T19:30:13.286Z,101366.50
2022-12-12T19:32:42.124Z,101367.31
2022-12-12T19:35:11.079Z,101366.38
2022-12-12T19:37:39.403Z,101362.84
2022-12-12T19:40:08.603Z,101362.81
2022-12-12T19:42:36.908Z,101372.41
2022-12-12T19:45:06.397Z,101367.03
2022-12-12T19:47:35.076Z,101370.53
2022-12-12T19:50:03.332Z,101360.94
2022-12-12T19:52:31.731Z,101361.88
2022-12-12T19:54:59.980Z,101363.59
2022-12-12T19:57:28.356Z,101360.78
2022-12-12T19:59:56.684Z,101358.91
2022-12-12T20:02:25.156Z,101361.63
2022-12-12T20:04:53.640Z,101359.97
2022-12-12T20:07:21.964Z,101350.44
2022-12-12T20:09:50.412Z,101346.03
2022-12-12T20:12:18.884Z,101353.06
2022-12-12T20:14:47.409Z,101346.13
2022-12-12T20:17:15.857Z,101349.63
2022-12-12T20:19:44.134Z,101350.34
2022-12-12T20:22:12.515Z,101336.97
2022-12-12T20:24:41.805Z,101342.91
2022-12-12T20:27:10.276Z,101338.31
2022-12-12T20:29:38.599Z,101331.16
2022-12-12T20:32:07.137Z,101332.19
2022-12-12T20:34:35.559Z,101332.19
2022-12-12T20:37:03.899Z,101326.78
2022-12-12T20:39:32.833Z,101337.28
2022-12-12T20:42:01.162Z,101331.91
2022-12-12T20:44:30.064Z,101332.66
2022-12-12T20:47:00.839Z,101320.09
2022-12-12T20:49:30.446Z,101318.19
2022-12-12T20:51:59.932Z,101315.41
2022-12-12T20:54:29.944Z,101319.69
2022-12-12T20:56:59.700Z,101308.03
2022-12-12T20:59:29.005Z,101305.97
2022-12-12T21:01:57.843Z,101305.94
2022-12-12T21:04:26.870Z,101303.28
2022-12-12T21:06:55.358Z,101300.63
2022-12-12T21:09:26.831Z,101299.91
2022-12-12T21:11:58.090Z,101306.41
2022-12-12T21:14:29.168Z,101301.25
2022-12-12T21:16:58.062Z,101295.91
2022-12-12T21:19:26.449Z,101292.19
2022-12-12T21:21:55.404Z,101287.66
2022-12-12T21:24:23.826Z,101283.94
2022-12-12T21:26:52.179Z,101283.91
2022-12-12T21:29:20.638Z,101279.53
2022-12-12T21:31:52.183Z,101284.66
2022-12-12T21:34:24.784Z,101286.34
2022-12-12T21:36:57.577Z,101277.34
2022-12-12T21:39:27.884Z,101273.72
2022-12-12T21:41:57.306Z,101269.22
2022-12-12T21:44:26.437Z,101275.44
2022-12-12T21:46:54.757Z,101260.59
2022-12-12T21:49:29.445Z,101271.88
2022-12-12T21:52:07.189Z,101267.28
2022-12-12T21:54:35.724Z,101265.59
2022-12-12T21:57:04.197Z,101266.34
2022-12-12T21:59:33.533Z,101266.25
2022-12-12T22:02:02.033Z,101269.69
2022-12-12T22:04:31.071Z,101266.09
2022-12-12T22:06:59.752Z,101270.47
2022-12-12T22:09:28.367Z,101268.41
2022-12-12T22:12:03.044Z,101270.72
2022-12-12T22:14:32.669Z,101266.91
2022-12-12T22:17:01.154Z,101273.56
2022-12-12T22:19:29.620Z,101278.47
2022-12-12T22:21:58.120Z,101276.22
2022-12-12T22:24:27.284Z,101269.22
2022-12-12T22:26:55.636Z,101276.13
2022-12-12T22:29:24.039Z,101277.75
2022-12-12T22:31:53.177Z,101278.59
2022-12-12T22:34:25.163Z,101279.38
2022-12-12T22:36:54.164Z,101277.56
2022-12-12T22:39:25.779Z,101284.63
2022-12-12T22:41:55.190Z,101280.22
2022-12-12T22:44:26.015Z,101281.09
2022-12-12T22:46:56.414Z,101286.38
2022-12-12T22:49:26.871Z,101288.97
2022-12-12T22:51:57.806Z,101281.94
2022-12-12T22:54:27.150Z,101273.06
2022-12-12T22:56:55.980Z,101277.50
2022-12-12T22:59:24.324Z,101285.56
2022-12-12T23:01:52.611Z,101273.34
2022-12-12T23:04:21.066Z,101284.94
2022-12-12T23:06:49.489Z,101284.22
2022-12-12T23:09:23.140Z,101296.72
2022-12-12T23:11:51.514Z,101291.66
2022-12-12T23:14:23.662Z,101297.97
2022-12-12T23:16:52.624Z,101294.59
2022-12-12T23:19:24.363Z,101305.34
2022-12-12T23:21:53.169Z,101300.16
2022-12-12T23:24:21.479Z,101298.44
2022-12-12T23:26:52.828Z,101304.66
2022-12-12T23:29:21.394Z,101301.19
2022-12-12T23:31:50.236Z,101306.53
2022-12-12T23:34:23.697Z,101302.97
2022-12-12T23:36:54.762Z,101299.47
2022-12-12T23:39:24.268Z,101305.63
2022-12-12T23:41:52.648Z,101310.16
2022-12-12T23:44:22.614Z,101312.84
2022-12-12T23:46:51.566Z,101318.16
2022-12-12T23:49:28.711Z,101319.09
2022-12-12T23:51:59.203Z,101320.06
2022-12-12T23:54:34.446Z,101323.66
2022-12-12T23:57:03.874Z,101325.44
2022-12-12T23:59:32.300Z,101327.22
